createdAt,value
2022-09-12T00:01:11.342Z,99.90
2022-09-12T00:03:40.517Z,99.90
2022-09-12T00:06:10.825Z,99.90
2022-09-12T00:08:39.139Z,99.90
2022-09-12T00:11:10.364Z,99.90
2022-09-12T00:13:41.875Z,99.90
2022-09-12T00:16:16.695Z,99.90
2022-09-12T00:18:47.162Z,99.90
2022-09-12T00:21:16.444Z,99.90
2022-09-12T00:23:44.850Z,99.90
2022-09-12T00:26:13.979Z,99.90
2022-09-12T00:28:43.066Z,99.90
2022-09-12T00:31:15.209Z,99.90
2022-09-12T00:33:43.857Z,99.90
2022-09-12T00:36:15.282Z,99.90
2022-09-12T00:38:44.769Z,99.90
2022-09-12T00:41:17.961Z,99.90
2022-09-12T00:43:48.899Z,99.90
2022-09-12T00:46:35.952Z,99.90
2022-09-12T00:49:12.800Z,99.90
2022-09-12T00:51:45.248Z,99.90
2022-09-12T00:54:17.511Z,99.90
2022-09-12T00:56:47.715Z,99.90
2022-09-12T00:59:19.294Z,99.90
2022-09-12T01:01:51.625Z,99.90
2022-09-12T01:04:22.819Z,99.90
2022-09-12T01:06:52.120Z,99.90
2022-09-12T01:09:22.819Z,99.90
2022-09-12T01:11:53.100Z,99.90
2022-09-12T01:14:21.925Z,99.90
2022-09-12T01:16:52.377Z,99.90
2022-09-12T01:19:51.029Z,99.90
2022-09-12T01:22:36.697Z,99.90
2022-09-12T01:25:12.661Z,99.90
2022-09-12T01:27:51.883Z,99.90
2022-09-12T01:30:32.812Z,99.90
2022-09-12T01:33:24.246Z,99.90
2022-09-12T01:36:03.221Z,99.90
2022-09-12T01:38:39.701Z,99.90
2022-09-12T01:41:18.567Z,99.90
2022-09-12T01:43:52.662Z,99.90
2022-09-12T01:46:25.843Z,99.90
2022-09-12T01:49:01.248Z,99.90
2022-09-12T01:51:35.929Z,99.90
2022-09-12T01:54:09.741Z,99.90
2022-09-12T01:56:41.906Z,99.90
2022-09-12T01:59:14.635Z,99.90
2022-09-12T02:01:49.659Z,99.90
2022-09-12T02:04:21.866Z,99.90
2022-09-12T02:06:53.375Z,99.90
2022-09-12T02:09:27.524Z,99.90
2022-09-12T02:11:58.919Z,99.90
2022-09-12T02:14:32.106Z,99.90
2022-09-12T02:17:05.928Z,99.90
2022-09-12T02:19:38.534Z,99.90
2022-09-12T02:22:08.368Z,99.90
2022-09-12T02:24:41.347Z,99.90
2022-09-12T02:27:14.987Z,99.90
2022-09-12T02:29:44.778Z,99.90
2022-09-12T02:32:22.174Z,99.90
2022-09-12T02:34:56.042Z,99.90
2022-09-12T02:37:29.031Z,99.90
2022-09-12T02:39:57.907Z,99.90
2022-09-12T02:42:26.449Z,99.90
2022-09-12T02:44:58.116Z,99.90
2022-09-12T02:47:32.405Z,99.90
2022-09-12T02:50:01.659Z,99.90
2022-09-12T02:52:30.630Z,99.90
2022-09-12T02:55:00.512Z,99.90
2022-09-12T02:57:28.695Z,99.90
2022-09-12T03:00:00.424Z,99.90
2022-09-12T03:02:39.346Z,99.90
2022-09-12T03:05:19.885Z,99.90
2022-09-12T03:08:08.055Z,99.90
2022-09-12T03:10:47.968Z,99.90
2022-09-12T03:13:22.777Z,99.90
2022-09-12T03:16:04.790Z,99.90
2022-09-12T03:18:48.592Z,99.90
2022-09-12T03:21:23.902Z,99.90
2022-09-12T03:24:06.065Z,99.90
2022-09-12T03:26:38.401Z,99.90
2022-09-12T03:29:08.428Z,99.90
2022-09-12T03:31:36.608Z,99.90
2022-09-12T03:34:06.194Z,99.90
2022-09-12T03:36:34.431Z,99.90
2022-09-12T03:39:02.435Z,99.90
2022-09-12T03:41:30.607Z,99.90
2022-09-12T03:43:58.512Z,99.90
2022-09-12T03:46:26.645Z,99.90
2022-09-12T03:48:54.706Z,99.90
2022-09-12T03:51:24.080Z,99.90
2022-09-12T03:53:52.305Z,99.90
2022-09-12T03:56:20.416Z,99.90
2022-09-12T03:58:48.791Z,99.90
2022-09-12T04:01:19.046Z,99.90
2022-09-12T04:03:48.621Z,99.90
2022-09-12T04:06:19.335Z,99.90
2022-09-12T04:08:51.758Z,99.90
2022-09-12T04:11:21.540Z,99.90
2022-09-12T04:13:49.593Z,99.90
2022-09-12T04:16:18.766Z,99.90
2022-09-12T04:18:47.791Z,99.90
2022-09-12T04:21:17.641Z,99.90
2022-09-12T04:23:46.001Z,99.90
2022-09-12T04:26:17.802Z,99.90
2022-09-12T04:28:47.156Z,99.90
2022-09-12T04:31:17.756Z,99.90
2022-09-12T04:33:46.390Z,99.90
2022-09-12T04:36:16.940Z,99.90
2022-09-12T04:38:45.967Z,99.90
2022-09-12T04:41:17.028Z,99.90
2022-09-12T04:43:47.167Z,99.90
2022-09-12T04:46:19.779Z,99.90
2022-09-12T04:48:52.207Z,99.90
2022-09-12T04:51:25.924Z,99.90
2022-09-12T04:53:55.650Z,99.90
2022-09-12T04:56:25.524Z,99.90
2022-09-12T04:58:53.756Z,99.90
2022-09-12T05:01:23.471Z,99.90
2022-09-12T05:03:52.265Z,99.90
2022-09-12T05:06:22.109Z,99.90
2022-09-12T05:08:50.242Z,99.90
2022-09-12T05:11:24.942Z,99.90
2022-09-12T05:13:57.799Z,99.90
2022-09-12T05:16:29.265Z,99.90
2022-09-12T05:18:58.495Z,99.90
2022-09-12T05:21:28.057Z,99.90
2022-09-12T05:23:58.466Z,99.90
2022-09-12T05:26:26.818Z,99.90
2022-09-12T05:28:55.344Z,99.90
2022-09-12T05:31:27.144Z,99.90
2022-09-12T05:33:56.421Z,99.90
2022-09-12T05:36:26.268Z,99.90
2022-09-12T05:38:55.176Z,99.90
2022-09-12T05:41:29.363Z,99.90
2022-09-12T05:43:59.139Z,99.90
2022-09-12T05:46:30.083Z,99.90
2022-09-12T05:48:58.499Z,99.90
2022-09-12T05:51:28.700Z,99.90
2022-09-12T05:54:00.136Z,99.90
2022-09-12T05:56:29.807Z,99.90
2022-09-12T05:58:59.743Z,99.90
2022-09-12T06:01:30.688Z,99.90
2022-09-12T06:04:04.222Z,99.90
2022-09-12T06:06:33.958Z,99.90
2022-09-12T06:09:03.886Z,99.90
2022-09-12T06:11:34.272Z,99.90
2022-09-12T06:14:03.020Z,99.90
2022-09-12T06:16:34.307Z,99.90
2022-09-12T06:19:04.565Z,99.90
2022-09-12T06:21:33.949Z,99.90
2022-09-12T06:24:02.396Z,99.90
2022-09-12T06:26:30.837Z,99.90
2022-09-12T06:29:00.913Z,99.90
2022-09-12T06:31:30.703Z,99.90
2022-09-12T06:34:02.633Z,99.90
2022-09-12T06:36:32.785Z,99.90
2022-09-12T06:39:02.799Z,99.90
2022-09-12T06:41:32.136Z,99.90
2022-09-12T06:44:01.181Z,99.90
2022-09-12T06:46:30.909Z,99.90
2022-09-12T06:49:01.552Z,99.90
2022-09-12T06:51:29.902Z,99.90
2022-09-12T06:53:59.118Z,99.90
2022-09-12T06:56:28.585Z,99.90
2022-09-12T06:58:58.933Z,99.90
2022-09-12T07:01:28.766Z,99.90
2022-09-12T07:03:58.973Z,99.90
2022-09-12T07:06:31.894Z,96.90
2022-09-12T07:09:01.283Z,90.30
2022-09-12T07:11:31.892Z,78.10
2022-09-12T07:14:02.704Z,61.80
2022-09-12T07:16:31.275Z,59.10
2022-09-12T07:19:01.027Z,56.00
2022-09-12T07:21:31.390Z,52.30
2022-09-12T07:24:00.173Z,51.80
2022-09-12T07:26:30.602Z,48.30
2022-09-12T07:29:25.260Z,45.40
2022-09-12T07:31:48.273Z,46.40
2022-09-12T07:34:18.390Z,42.70
2022-09-12T07:36:47.981Z,43.30
2022-09-12T07:39:16.226Z,42.00
2022-09-12T07:41:44.451Z,42.00
2022-09-12T07:44:12.620Z,38.70
2022-09-12T07:46:40.632Z,40.20
2022-09-12T07:49:08.831Z,39.60
2022-09-12T07:51:37.399Z,41.10
2022-09-12T07:54:10.589Z,42.30
2022-09-12T07:56:39.522Z,41.70
2022-09-12T07:59:09.613Z,40.10
2022-09-12T08:01:37.601Z,40.10
2022-09-12T08:04:06.033Z,38.30
2022-09-12T08:06:36.012Z,38.10
2022-09-12T08:09:04.985Z,39.90
2022-09-12T08:11:34.875Z,40.00
2022-09-12T08:14:03.125Z,39.40
2022-09-12T08:16:33.187Z,41.80
2022-09-12T08:19:03.213Z,43.10
2022-09-12T08:21:33.044Z,45.10
2022-09-12T08:24:03.532Z,46.90
2022-09-12T08:26:33.286Z,49.00
2022-09-12T08:29:04.177Z,51.90
2022-09-12T08:31:36.328Z,54.50
2022-09-12T08:34:05.436Z,55.60
2022-09-12T08:36:33.741Z,55.80
2022-09-12T08:39:04.508Z,56.70
2022-09-12T08:41:36.229Z,57.70
2022-09-12T08:44:48.111Z,57.90
2022-09-12T08:47:22.214Z,59.50
2022-09-12T08:50:02.117Z,58.90
2022-09-12T08:52:34.856Z,57.40
2022-09-12T08:55:06.576Z,57.70
2022-09-12T08:57:34.751Z,56.90
2022-09-12T09:00:07.948Z,56.50
2022-09-12T09:03:17.363Z,56.50
2022-09-12T09:05:52.324Z,56.50
2022-09-12T09:08:41.977Z,56.10
2022-09-12T09:11:27.956Z,54.50
2022-09-12T09:14:26.396Z,55.00
2022-09-12T09:16:58.377Z,54.30
2022-09-12T09:19:30.264Z,52.10
2022-09-12T09:22:01.958Z,52.20
2022-09-12T09:24:35.731Z,52.00
2022-09-12T09:27:23.574Z,51.70
2022-09-12T09:29:57.137Z,50.80
2022-09-12T09:32:32.233Z,50.10
2022-09-12T09:35:01.646Z,51.90
2022-09-12T09:37:39.962Z,51.60
2022-09-12T09:40:19.070Z,50.80
2022-09-12T09:42:57.319Z,48.40
2022-09-12T09:45:29.234Z,49.40
2022-09-12T09:48:04.719Z,49.10
2022-09-12T09:50:33.864Z,50.30
2022-09-12T09:53:03.979Z,51.20
2022-09-12T09:55:39.394Z,51.30
2022-09-12T09:58:07.599Z,51.40
2022-09-12T10:00:37.163Z,51.30
2022-09-12T10:03:25.507Z,52.90
2022-09-12T10:05:54.971Z,53.50
2022-09-12T10:08:24.992Z,53.50
2022-09-12T10:11:02.812Z,54.50
2022-09-12T10:13:39.235Z,55.20
2022-09-12T10:16:19.173Z,55.80
2022-09-12T10:18:51.057Z,55.60
2022-09-12T10:21:30.531Z,55.20
2022-09-12T10:24:06.129Z,54.70
2022-09-12T10:26:37.071Z,54.70
2022-09-12T10:29:13.691Z,54.60
2022-09-12T10:31:49.801Z,54.80
2022-09-12T10:34:30.582Z,54.00
2022-09-12T10:37:05.120Z,53.30
2022-09-12T10:39:34.473Z,53.60
2022-09-12T10:42:03.165Z,52.00
2022-09-12T10:44:32.848Z,50.60
2022-09-12T10:47:19.924Z,51.10
2022-09-12T10:49:51.109Z,51.00
2022-09-12T10:52:23.432Z,50.50
2022-09-12T10:54:52.030Z,49.60
2022-09-12T10:57:49.096Z,49.20
2022-09-12T11:00:27.409Z,49.90
2022-09-12T11:03:10.603Z,50.40
2022-09-12T11:05:59.876Z,50.00
2022-09-12T11:08:52.145Z,50.20
2022-09-12T11:11:35.406Z,48.80
2022-09-12T11:14:15.271Z,47.70
2022-09-12T11:16:50.130Z,47.00
2022-09-12T11:19:48.368Z,42.40
2022-09-12T11:22:33.468Z,44.00
2022-09-12T11:25:17.680Z,42.00
2022-09-12T11:28:01.471Z,39.90
2022-09-12T11:30:35.180Z,37.20
2022-09-12T11:33:25.315Z,37.30
2022-09-12T11:35:57.385Z,36.50
2022-09-12T11:38:52.983Z,36.30
2022-09-12T11:41:28.771Z,36.00
2022-09-12T11:44:02.558Z,33.10
2022-09-12T11:46:35.637Z,33.70
2022-09-12T11:49:21.711Z,32.70
2022-09-12T11:51:56.244Z,34.10
2022-09-12T11:57:42.023Z,36.10
2022-09-12T12:00:19.491Z,37.30
2022-09-12T12:02:56.810Z,38.00
2022-09-12T12:05:29.906Z,37.70
2022-09-12T12:07:59.431Z,37.10
2022-09-12T12:10:33.965Z,34.20
2022-09-12T12:13:13.297Z,34.50
2022-09-12T12:15:48.307Z,34.70
2022-09-12T12:18:19.836Z,35.30
2022-09-12T12:20:48.097Z,35.20
2022-09-12T12:23:30.693Z,35.10
2022-09-12T12:26:00.892Z,36.00
2022-09-12T12:28:58.835Z,35.10
2022-09-12T12:31:26.933Z,33.90
2022-09-12T12:34:22.769Z,33.90
2022-09-12T12:36:51.181Z,34.60
2022-09-12T12:40:01.107Z,34.80
2022-09-12T12:43:07.691Z,35.00
2022-09-12T12:46:08.566Z,35.30
2022-09-12T12:49:00.109Z,33.50
2022-09-12T12:51:36.473Z,31.00
2022-09-12T12:54:12.346Z,30.50
2022-09-12T12:56:43.057Z,30.80
2022-09-12T12:59:18.975Z,30.60
2022-09-12T13:01:54.972Z,32.20
2022-09-12T13:04:26.409Z,32.20
2022-09-12T13:07:07.174Z,32.50
2022-09-12T13:09:40.169Z,32.40
2022-09-12T13:12:11.296Z,32.90
2022-09-12T13:14:52.004Z,32.30
2022-09-12T13:17:35.439Z,32.10
2022-09-12T13:20:27.849Z,31.60
2022-09-12T13:22:57.038Z,31.70
2022-09-12T13:25:29.445Z,33.00
2022-09-12T13:28:02.132Z,33.10
2022-09-12T13:30:32.876Z,34.50
2022-09-12T13:33:21.156Z,35.60
2022-09-12T13:36:31.820Z,36.40
2022-09-12T13:39:21.332Z,37.70
2022-09-12T13:45:29.368Z,38.50
2022-09-12T13:48:01.950Z,39.30
2022-09-12T13:50:40.290Z,40.20
2022-09-12T13:53:15.038Z,40.30
2022-09-12T13:55:46.737Z,40.20
2022-09-12T13:58:20.855Z,40.10
2022-09-12T14:01:00.764Z,38.90
2022-09-12T14:03:47.864Z,39.50
2022-09-12T14:06:19.009Z,40.50
2022-09-12T14:08:48.715Z,41.10
2022-09-12T14:11:27.138Z,42.40
2022-09-12T14:13:56.279Z,42.60
2022-09-12T14:16:27.308Z,43.10
2022-09-12T14:18:56.075Z,43.70
2022-09-12T14:21:43.555Z,44.10
2022-09-12T14:24:13.914Z,44.70
2022-09-12T14:26:45.028Z,45.20
2022-09-12T14:29:17.281Z,45.20
2022-09-12T14:31:45.614Z,45.30
2022-09-12T14:34:16.172Z,46.00
2022-09-12T14:36:48.191Z,46.30
2022-09-12T14:39:24.682Z,46.50
2022-09-12T14:42:02.302Z,46.70
2022-09-12T14:44:32.049Z,46.70
2022-09-12T14:47:12.632Z,47.10
2022-09-12T14:49:40.928Z,47.00
2022-09-12T14:52:24.526Z,47.10
2022-09-12T14:55:00.674Z,47.20
2022-09-12T14:57:40.776Z,47.20
2022-09-12T15:00:21.356Z,47.50
2022-09-12T15:02:51.050Z,47.60
2022-09-12T15:05:23.404Z,47.70
2022-09-12T15:08:01.291Z,47.10
2022-09-12T15:10:32.326Z,47.30
2022-09-12T15:13:19.436Z,47.20
2022-09-12T15:15:49.769Z,47.50
2022-09-12T15:18:18.937Z,47.40
2022-09-12T15:20:49.125Z,47.70
2022-09-12T15:23:24.253Z,48.10
2022-09-12T15:25:52.319Z,48.50
2022-09-12T15:28:22.252Z,48.90
2022-09-12T15:30:52.865Z,49.10
2022-09-12T15:33:24.132Z,49.30
2022-09-12T15:35:53.414Z,49.90
2022-09-12T15:38:26.323Z,49.90
2022-09-12T15:40:55.890Z,49.60
2022-09-12T15:43:26.202Z,49.80
2022-09-12T15:45:54.523Z,50.20
2022-09-12T15:48:22.757Z,50.40
2022-09-12T15:50:50.850Z,51.10
2022-09-12T15:53:19.355Z,50.90
2022-09-12T15:55:48.699Z,51.00
2022-09-12T15:58:16.812Z,51.40
2022-09-12T16:00:45.078Z,51.20
2022-09-12T16:03:22.493Z,51.50
2022-09-12T16:05:51.352Z,52.00
2022-09-12T16:08:19.354Z,52.00
2022-09-12T16:10:52.851Z,52.50
2022-09-12T16:13:21.065Z,52.80
2022-09-12T16:15:50.391Z,52.90
2022-09-12T16:18:18.621Z,53.60
2022-09-12T16:20:46.798Z,53.10
2022-09-12T16:23:14.941Z,53.60
2022-09-12T16:25:43.145Z,53.70
2022-09-12T16:28:12.941Z,53.80
2022-09-12T16:30:41.296Z,54.20
2022-09-12T16:33:09.371Z,54.20
2022-09-12T16:35:37.373Z,54.30
2022-09-12T16:38:05.559Z,54.60
2022-09-12T16:40:33.572Z,54.40
2022-09-12T16:43:01.800Z,54.70
2022-09-12T16:45:31.147Z,54.70
2022-09-12T16:47:59.310Z,55.00
2022-09-12T16:50:29.156Z,55.20
2022-09-12T16:52:57.313Z,55.40
2022-09-12T16:55:25.382Z,55.30
2022-09-12T16:57:54.234Z,55.70
2022-09-12T17:00:22.427Z,55.50
2022-09-12T17:02:51.895Z,56.10
2022-09-12T17:05:20.701Z,56.30
2022-09-12T17:07:48.684Z,56.30
2022-09-12T17:10:16.900Z,56.90
2022-09-12T17:12:44.893Z,57.10
2022-09-12T17:15:12.976Z,57.00
2022-09-12T17:17:40.989Z,57.50
2022-09-12T17:20:11.208Z,57.90
2022-09-12T17:22:39.248Z,59.00
2022-09-12T17:25:08.034Z,59.30
2022-09-12T17:27:36.032Z,59.20
2022-09-12T17:30:04.395Z,59.70
2022-09-12T17:32:32.531Z,60.70
2022-09-12T17:35:01.005Z,61.60
2022-09-12T17:37:31.041Z,62.00
2022-09-12T17:39:59.105Z,62.40
2022-09-12T17:42:27.248Z,63.30
2022-09-12T17:44:58.258Z,62.70
2022-09-12T17:47:26.357Z,63.70
2022-09-12T17:50:05.152Z,63.90
2022-09-12T17:52:43.993Z,64.60
2022-09-12T17:55:13.057Z,65.30
2022-09-12T17:57:41.270Z,65.90
2022-09-12T18:00:10.565Z,66.00
2022-09-12T18:02:40.255Z,66.90
2022-09-12T18:05:10.311Z,67.30
2022-09-12T18:07:43.493Z,68.00
2022-09-12T18:10:13.857Z,68.50
2022-09-12T18:12:41.831Z,69.00
2022-09-12T18:15:11.125Z,69.50
2022-09-12T18:17:39.940Z,70.60
2022-09-12T18:20:08.807Z,71.60
2022-09-12T18:22:36.811Z,72.50
2022-09-12T18:25:05.383Z,72.30
2022-09-12T18:27:34.731Z,74.80
2022-09-12T18:30:20.496Z,76.40
2022-09-12T18:32:50.056Z,76.50
2022-09-12T18:35:18.645Z,78.00
2022-09-12T18:37:46.629Z,78.40
2022-09-12T18:40:14.814Z,80.90
2022-09-12T18:42:44.313Z,82.10
2022-09-12T18:45:12.310Z,82.40
2022-09-12T18:47:40.608Z,82.90
2022-09-12T18:50:09.152Z,83.70
2022-09-12T18:52:37.651Z,83.60
2022-09-12T18:55:06.535Z,84.50
2022-09-12T18:57:35.249Z,85.10
2022-09-12T19:00:10.534Z,84.70
2022-09-12T19:02:40.900Z,85.90
2022-09-12T19:05:09.515Z,86.30
2022-09-12T19:07:38.144Z,86.10
2022-09-12T19:10:06.921Z,85.80
2022-09-12T19:12:34.976Z,85.50
2022-09-12T19:15:04.951Z,85.80
2022-09-12T19:17:32.984Z,86.80
2022-09-12T19:20:01.089Z,87.00
2022-09-12T19:22:30.537Z,87.20
2022-09-12T19:24:58.745Z,87.10
2022-09-12T19:27:26.781Z,87.60
2022-09-12T19:29:54.781Z,87.50
2022-09-12T19:32:24.147Z,87.50
2022-09-12T19:34:52.193Z,87.80
2022-09-12T19:37:20.358Z,87.90
2022-09-12T19:39:48.398Z,88.80
2022-09-12T19:42:16.611Z,89.30
2022-09-12T19:44:44.785Z,89.80
2022-09-12T19:47:12.759Z,89.60
2022-09-12T19:49:42.263Z,90.00
2022-09-12T19:52:11.863Z,90.30
2022-09-12T19:54:42.397Z,90.70
2022-09-12T19:57:10.531Z,91.10
2022-09-12T19:59:38.504Z,91.50
2022-09-12T20:02:06.846Z,91.40
2022-09-12T20:04:35.002Z,91.70
2022-09-12T20:07:04.587Z,92.00
2022-09-12T20:09:32.597Z,92.10
2022-09-12T20:12:00.550Z,92.20
2022-09-12T20:14:28.719Z,92.70
2022-09-12T20:16:56.749Z,93.00
2022-09-12T20:19:24.846Z,93.30
2022-09-12T20:21:52.790Z,93.50
2022-09-12T20:24:22.235Z,93.70
2022-09-12T20:26:50.183Z,93.80
2022-09-12T20:29:18.499Z,94.40
2022-09-12T20:31:46.625Z,94.40
2022-09-12T20:34:16.602Z,94.20
2022-09-12T20:36:44.749Z,94.50
2022-09-12T20:39:15.045Z,94.70
2022-09-12T20:41:44.667Z,94.70
2022-09-12T20:44:13.008Z,94.60
2022-09-12T20:46:41.577Z,95.00
2022-09-12T20:49:10.105Z,95.20
2022-09-12T20:51:39.103Z,95.50
2022-09-12T20:54:08.264Z,95.60
2022-09-12T20:56:37.816Z,95.70
2022-09-12T20:59:07.583Z,95.90
2022-09-12T21:01:35.852Z,95.70
2022-09-12T21:04:04.480Z,96.30
2022-09-12T21:06:32.876Z,96.30
2022-09-12T21:09:00.977Z,96.40
2022-09-12T21:11:29.735Z,96.60
2022-09-12T21:13:58.914Z,96.70
2022-09-12T21:16:28.790Z,96.80
2022-09-12T21:18:58.616Z,97.00
2022-09-12T21:21:27.473Z,97.00
2022-09-12T21:23:59.582Z,97.30
2022-09-12T21:26:28.290Z,97.20
2022-09-12T21:28:56.564Z,97.50
2022-09-12T21:31:24.707Z,97.40
2022-09-12T21:33:54.091Z,97.30
2022-09-12T21:36:22.036Z,97.50
2022-09-12T21:38:50.191Z,97.50
2022-09-12T21:41:18.457Z,97.50
2022-09-12T21:43:46.544Z,97.40
2022-09-12T21:46:14.709Z,97.30
2022-09-12T21:48:43.849Z,97.10
2022-09-12T21:51:13.278Z,96.90
2022-09-12T21:53:41.332Z,96.90
2022-09-12T21:56:10.292Z,96.80
2022-09-12T21:58:39.107Z,96.70
2022-09-12T22:01:09.378Z,96.60
2022-09-12T22:03:37.546Z,96.80
2022-09-12T22:06:07.422Z,96.60
2022-09-12T22:08:38.815Z,96.70
2022-09-12T22:11:09.670Z,96.60
2022-09-12T22:13:39.206Z,96.70
2022-09-12T22:16:10.999Z,96.60
2022-09-12T22:18:39.556Z,96.60
2022-09-12T22:21:09.630Z,96.50
2022-09-12T22:23:56.382Z,96.60
2022-09-12T22:26:24.341Z,96.70
2022-09-12T22:28:52.558Z,96.60
2022-09-12T22:31:20.925Z,96.50
2022-09-12T22:33:50.815Z,96.70
2022-09-12T22:36:19.089Z,96.80
2022-09-12T22:38:48.559Z,96.60
2022-09-12T22:41:16.676Z,96.90
2022-09-12T22:43:44.925Z,97.10
2022-09-12T22:46:13.393Z,97.10
2022-09-12T22:48:41.881Z,97.10
2022-09-12T22:51:10.598Z,97.20
2022-09-12T22:53:39.046Z,97.30
2022-09-12T22:56:09.376Z,97.30
2022-09-12T22:58:38.142Z,97.20
2022-09-12T23:01:07.091Z,97.30
2022-09-12T23:03:36.400Z,97.30
2022-09-12T23:06:05.663Z,97.40
2022-09-12T23:08:39.811Z,97.30
2022-09-12T23:11:11.351Z,97.60
2022-09-12T23:13:40.010Z,97.90
2022-09-12T23:16:09.183Z,98.00
2022-09-12T23:18:38.329Z,97.70
2022-09-12T23:21:08.553Z,98.30
2022-09-12T23:23:37.263Z,98.40
2022-09-12T23:26:07.461Z,99.20
2022-09-12T23:28:37.686Z,99.50
2022-09-12T23:31:06.195Z,99.60
2022-09-12T23:33:34.470Z,99.80
2022-09-12T23:36:03.038Z,99.80
2022-09-12T23:38:32.167Z,99.90
2022-09-12T23:41:01.158Z,99.90
2022-09-12T23:43:29.247Z,99.90
2022-09-12T23:45:59.134Z,99.90
2022-09-12T23:48:27.621Z,99.90
2022-09-12T23:50:55.926Z,99.90
2022-09-12T23:53:24.166Z,99.90
2022-09-12T23:55:52.819Z,99.80
2022-09-12T23:58:21.582Z,99.80
